createdAt,value
2023-01-05T00:04:49.606Z,0
2023-01-05T00:09:49.750Z,0
2023-01-05T00:14:49.679Z,0
2023-01-05T00:19:49.522Z,0
2023-01-05T00:24:49.826Z,0
2023-01-05T00:29:49.772Z,0
2023-01-05T00:34:50.156Z,0
2023-01-05T00:39:49.395Z,0
2023-01-05T00:44:49.470Z,0
2023-01-05T00:49:49.811Z,0
2023-01-05T00:54:49.663Z,0
2023-01-05T00:59:49.802Z,0
2023-01-05T01:04:49.580Z,0
2023-01-05T01:09:49.759Z,0
2023-01-05T01:14:50.238Z,0
2023-01-05T01:19:49.914Z,0
2023-01-05T01:24:49.719Z,0
2023-01-05T01:29:49.710Z,0
2023-01-05T01:34:49.569Z,0
2023-01-05T01:39:49.608Z,0
2023-01-05T01:44:56.670Z,0
2023-01-05T01:49:49.780Z,0
2023-01-05T01:54:49.405Z,0
2023-01-05T01:59:49.404Z,0
2023-01-05T02:04:49.561Z,0
2023-01-05T02:09:49.564Z,0
2023-01-05T02:14:49.547Z,0
2023-01-05T02:19:59.714Z,0
2023-01-05T08:54:55.755Z,0
2023-01-05T08:59:51.791Z,9.4
2023-01-05T09:04:50.970Z,17.7
2023-01-05T09:09:50.903Z,21.6
2023-01-05T09:14:51.003Z,23
2023-01-05T09:19:50.937Z,24.6
2023-01-05T09:24:50.872Z,23.5
2023-01-05T09:29:51.117Z,22.2
2023-01-05T09:34:50.835Z,24.3
2023-01-05T09:39:51.168Z,28.6
2023-01-05T09:44:55.533Z,33.3
2023-01-05T09:49:51.201Z,38.1
2023-01-05T09:54:50.941Z,36.2
2023-01-05T09:59:52.653Z,42.4
2023-01-05T10:04:52.030Z,44.3
2023-01-05T10:09:50.747Z,48.2
2023-01-05T10:14:53.177Z,48.2
2023-01-05T10:19:50.993Z,43.4
2023-01-05T10:24:51.072Z,40
2023-01-05T10:29:53.475Z,41.1
2023-01-05T10:34:51.085Z,39
2023-01-05T10:39:55.715Z,41.9
2023-01-05T10:44:51.056Z,48.5
2023-01-05T10:49:50.949Z,56.8
2023-01-05T10:54:51.036Z,63.8
2023-01-05T10:59:53.601Z,72.5
2023-01-05T11:04:52.322Z,72
2023-01-05T11:09:50.773Z,70.8
2023-01-05T11:14:56.329Z,72.5
2023-01-05T11:19:52.890Z,74
2023-01-05T11:24:51.134Z,74.9
2023-01-05T11:30:16.498Z,79.4
2023-01-05T11:34:50.928Z,82.4
2023-01-05T11:39:53.060Z,87.2
2023-01-05T11:44:52.163Z,93.7
2023-01-05T11:49:58.572Z,92
2023-01-05T11:54:50.997Z,81.7
2023-01-05T11:59:50.904Z,98.4
2023-01-05T12:05:00.689Z,170.5
2023-01-05T12:09:54.814Z,144.4
2023-01-05T12:14:50.780Z,176.8
2023-01-05T12:19:50.998Z,289.4
2023-01-05T12:24:57.172Z,277.4
2023-01-05T12:35:02.868Z,112.7
2023-01-05T12:40:00.490Z,105.8
2023-01-05T12:44:50.587Z,105.1
2023-01-05T12:49:54.327Z,90.4
2023-01-05T12:54:54.192Z,67.5
2023-01-05T12:59:55.267Z,66.4
2023-01-05T13:04:56.259Z,57.4
2023-01-05T13:09:50.674Z,54.8
2023-01-05T13:15:00.106Z,55.3
2023-01-05T13:19:53.316Z,50.3
2023-01-05T13:24:56.093Z,50.9
2023-01-05T13:29:52.342Z,50.4
2023-01-05T13:34:50.536Z,52.3
2023-01-05T13:39:59.487Z,52.9
2023-01-05T13:44:50.509Z,56.8
2023-01-05T13:50:00.346Z,62.6
2023-01-05T13:55:01.504Z,52.9
2023-01-05T14:00:00.585Z,43.4
2023-01-05T14:04:50.937Z,38.4
2023-01-05T14:09:53.003Z,36.9
2023-01-05T14:15:00.454Z,34.9
2023-01-05T14:19:50.565Z,31.1
2023-01-05T14:24:50.693Z,28.5
2023-01-05T14:29:59.720Z,24.2
2023-01-05T14:34:52.981Z,20.8
2023-01-05T14:39:53.194Z,19.5
2023-01-05T14:44:50.459Z,21.1
2023-01-05T14:49:52.275Z,18.5
2023-01-05T14:55:26.754Z,16.5
2023-01-05T14:59:50.558Z,14.1
2023-01-05T15:04:50.624Z,11.5
2023-01-05T15:10:28.585Z,8.9
2023-01-05T15:14:50.669Z,8
2023-01-05T15:19:50.689Z,6.4
2023-01-05T15:24:56.571Z,4.9
2023-01-05T15:29:58.704Z,3.7
2023-01-05T15:34:50.392Z,2.2
2023-01-05T15:39:51.518Z,0.9
2023-01-05T15:44:51.192Z,0.3
2023-01-05T15:49:50.777Z,0.1
2023-01-05T15:54:59.912Z,0
2023-01-05T15:59:50.502Z,0
2023-01-05T16:05:08.391Z,0
2023-01-05T16:09:50.809Z,0
2023-01-05T16:14:52.154Z,0
2023-01-05T16:19:50.559Z,0
2023-01-05T16:24:54.663Z,0
2023-01-05T16:29:50.717Z,0
2023-01-05T16:34:50.716Z,0
2023-01-05T16:39:50.780Z,0
2023-01-05T16:44:51.460Z,0
2023-01-05T16:49:58.058Z,0
2023-01-05T16:55:16.989Z,0
2023-01-05T16:59:50.534Z,0
2023-01-05T17:04:50.388Z,0
2023-01-05T17:09:50.800Z,0
2023-01-05T17:14:50.312Z,0
2023-01-05T17:19:50.656Z,0
2023-01-05T17:24:50.395Z,0
2023-01-05T17:29:51.269Z,0
2023-01-05T17:34:50.709Z,0
2023-01-05T17:39:50.561Z,0
2023-01-05T17:44:50.553Z,0
2023-01-05T17:49:50.599Z,0
2023-01-05T17:54:50.376Z,0
2023-01-05T17:59:50.589Z,0
2023-01-05T18:04:51.413Z,0
2023-01-05T18:09:50.620Z,0
2023-01-05T18:14:50.404Z,0
2023-01-05T18:19:50.650Z,0
2023-01-05T18:24:50.371Z,0
2023-01-05T18:29:50.289Z,0
2023-01-05T18:34:50.604Z,0
2023-01-05T18:39:50.645Z,0
2023-01-05T18:44:50.394Z,0
2023-01-05T18:49:50.294Z,0
2023-01-05T18:54:50.894Z,0
2023-01-05T18:59:51.868Z,0
2023-01-05T19:04:50.549Z,0
2023-01-05T19:09:51.493Z,0
2023-01-05T19:14:50.594Z,0
2023-01-05T19:19:50.391Z,0
2023-01-05T19:24:50.571Z,0
2023-01-05T19:29:50.759Z,0
2023-01-05T19:34:50.331Z,0
2023-01-05T19:39:50.457Z,0
2023-01-05T19:44:50.344Z,0
2023-01-05T19:49:50.489Z,0
2023-01-05T19:54:50.259Z,0
2023-01-05T19:59:51.434Z,0
2023-01-05T20:04:50.777Z,0
2023-01-05T20:09:50.397Z,0
2023-01-05T20:14:50.393Z,0
2023-01-05T20:19:50.379Z,0
2023-01-05T20:24:50.409Z,0
2023-01-05T20:29:50.654Z,0
2023-01-05T20:34:51.170Z,0
2023-01-05T20:39:50.349Z,0
2023-01-05T20:44:50.683Z,0
2023-01-05T20:49:50.432Z,0
2023-01-05T20:54:50.464Z,0
2023-01-05T20:59:50.199Z,0
2023-01-05T21:04:50.381Z,0
2023-01-05T21:09:50.252Z,0
2023-01-05T21:14:50.427Z,0
2023-01-05T21:19:50.319Z,0
2023-01-05T21:24:50.259Z,0
2023-01-05T21:29:50.548Z,0
2023-01-05T21:34:50.350Z,0
2023-01-05T21:39:50.412Z,0
2023-01-05T21:44:50.453Z,0
2023-01-05T21:49:50.172Z,0
2023-01-05T21:54:50.071Z,0
2023-01-05T21:59:50.110Z,0
2023-01-05T22:04:50.150Z,0
2023-01-05T22:09:50.584Z,0
2023-01-05T22:15:00.406Z,0
2023-01-05T22:20:01.054Z,0
2023-01-05T22:25:00.618Z,0
2023-01-05T22:30:00.527Z,0
2023-01-05T22:35:00.549Z,0
2023-01-05T22:40:00.477Z,0
2023-01-05T22:45:00.605Z,0
2023-01-05T22:50:00.601Z,0
2023-01-05T22:55:00.376Z,0
2023-01-05T23:00:00.866Z,0
2023-01-05T23:05:02.453Z,0
2023-01-05T23:10:00.727Z,0
2023-01-05T23:15:00.462Z,0
2023-01-05T23:20:00.337Z,0
2023-01-05T23:25:00.736Z,0
2023-01-05T23:30:00.528Z,0
2023-01-05T23:35:00.494Z,0
2023-01-05T23:40:00.549Z,0
2023-01-05T23:45:00.314Z,0
2023-01-05T23:50:00.694Z,0
2023-01-05T23:55:00.535Z,0
